createdAt,value
2022-09-29T00:00:11.361Z,11.50
2022-09-29T00:01:11.354Z,11.30
2022-09-29T00:02:11.451Z,11.50
2022-09-29T00:03:11.469Z,9.50
2022-09-29T00:04:11.345Z,9.60
2022-09-29T00:05:11.342Z,10.00
2022-09-29T00:06:11.336Z,10.00
2022-09-29T00:07:11.332Z,10.10
2022-09-29T00:08:11.330Z,10.10
2022-09-29T00:09:11.402Z,10.60
2022-09-29T00:10:11.325Z,10.50
2022-09-29T00:11:11.317Z,10.00
2022-09-29T00:12:11.314Z,10.40
2022-09-29T00:13:11.309Z,10.20
2022-09-29T00:14:11.332Z,10.10
2022-09-29T00:15:11.302Z,10.10
2022-09-29T00:16:11.375Z,9.70
2022-09-29T00:17:11.297Z,9.70
2022-09-29T00:18:14.942Z,10.00
2022-09-29T00:19:11.306Z,9.20
2022-09-29T00:20:11.289Z,10.10
2022-09-29T00:21:11.281Z,9.60
2022-09-29T00:22:11.281Z,10.10
2022-09-29T00:23:11.273Z,8.70
2022-09-29T00:24:11.366Z,9.80
2022-09-29T00:25:11.266Z,9.90
2022-09-29T00:26:11.266Z,10.40
2022-09-29T00:27:11.257Z,10.00
2022-09-29T00:28:11.257Z,8.60
2022-09-29T00:29:11.254Z,7.80
2022-09-29T00:30:11.249Z,7.60
2022-09-29T00:31:11.284Z,7.70
2022-09-29T00:32:11.240Z,7.30
2022-09-29T00:33:11.237Z,7.50
2022-09-29T00:34:11.310Z,6.80
2022-09-29T00:35:11.245Z,7.40
2022-09-29T00:36:11.225Z,7.40
2022-09-29T00:37:11.224Z,7.90
2022-09-29T00:38:11.272Z,6.90
2022-09-29T00:39:11.213Z,7.00
2022-09-29T00:40:11.213Z,7.70
2022-09-29T00:41:11.207Z,7.60
2022-09-29T00:42:11.207Z,8.00
2022-09-29T00:43:11.203Z,7.00
2022-09-29T00:44:11.254Z,6.60
2022-09-29T00:45:11.191Z,6.70
2022-09-29T00:46:11.253Z,6.80
2022-09-29T00:47:11.182Z,5.80
2022-09-29T00:48:11.184Z,6.00
2022-09-29T00:49:11.176Z,6.00
2022-09-29T00:50:11.175Z,5.50
2022-09-29T00:51:11.185Z,5.50
2022-09-29T00:52:11.168Z,5.70
2022-09-29T00:53:11.164Z,7.10
2022-09-29T00:54:11.283Z,7.00
2022-09-29T00:55:11.156Z,6.70
2022-09-29T00:56:11.154Z,5.50
2022-09-29T00:57:11.153Z,4.80
2022-09-29T00:58:11.144Z,4.90
2022-09-29T00:59:11.136Z,4.90
2022-09-29T01:00:11.141Z,4.90
2022-09-29T01:01:11.191Z,4.30
2022-09-29T01:02:11.187Z,4.90
2022-09-29T01:03:11.122Z,5.50
2022-09-29T01:04:11.160Z,4.70
2022-09-29T01:05:11.114Z,4.30
2022-09-29T01:06:11.113Z,4.20
2022-09-29T01:07:11.136Z,4.00
2022-09-29T01:08:11.104Z,4.00
2022-09-29T01:09:11.098Z,4.60
2022-09-29T01:10:11.097Z,4.30
2022-09-29T01:11:11.134Z,4.40
2022-09-29T01:12:11.089Z,4.40
2022-09-29T01:13:11.083Z,4.10
2022-09-29T01:14:11.088Z,4.20
2022-09-29T01:15:11.081Z,5.30
2022-09-29T01:16:11.145Z,4.70
2022-09-29T01:17:11.085Z,4.60
2022-09-29T01:18:11.071Z,3.70
2022-09-29T01:19:11.098Z,3.20
2022-09-29T01:20:11.059Z,4.30
2022-09-29T01:21:11.057Z,3.30
2022-09-29T01:22:11.052Z,3.10
2022-09-29T01:23:11.064Z,3.10
2022-09-29T01:24:11.040Z,2.80
2022-09-29T01:25:11.039Z,2.90
2022-09-29T01:26:11.034Z,4.10
2022-09-29T01:27:11.028Z,2.60
2022-09-29T01:28:11.028Z,3.20
2022-09-29T01:29:11.024Z,2.70
2022-09-29T01:30:11.020Z,3.50
2022-09-29T01:31:11.065Z,3.00
2022-09-29T01:32:11.008Z,3.40
2022-09-29T01:33:11.004Z,2.80
2022-09-29T01:34:11.006Z,2.60
2022-09-29T01:35:10.998Z,2.70
2022-09-29T01:36:10.991Z,2.70
2022-09-29T01:37:10.992Z,3.20
2022-09-29T01:38:10.983Z,2.90
2022-09-29T01:39:10.998Z,3.40
2022-09-29T01:40:10.978Z,3.70
2022-09-29T01:41:10.975Z,4.30
2022-09-29T01:42:10.968Z,4.40
2022-09-29T01:43:10.966Z,5.60
2022-09-29T01:44:10.967Z,4.40
2022-09-29T01:45:10.960Z,4.40
2022-09-29T01:46:10.994Z,3.30
2022-09-29T01:47:10.951Z,3.70
2022-09-29T01:48:10.942Z,4.00
2022-09-29T01:49:10.939Z,4.80
2022-09-29T01:50:10.939Z,5.10
2022-09-29T01:51:10.930Z,5.40
2022-09-29T01:52:10.925Z,7.80
2022-09-29T01:53:10.953Z,9.10
2022-09-29T01:54:10.919Z,4.60
2022-09-29T01:55:10.936Z,3.10
2022-09-29T01:56:10.910Z,3.60
2022-09-29T01:57:10.908Z,3.60
2022-09-29T01:58:10.905Z,3.30
2022-09-29T01:59:10.898Z,2.50
2022-09-29T02:00:10.894Z,2.80
2022-09-29T02:01:10.948Z,2.70
2022-09-29T02:02:10.926Z,2.40
2022-09-29T02:03:10.879Z,2.40
2022-09-29T02:04:10.879Z,2.10
2022-09-29T02:05:10.880Z,2.20
2022-09-29T02:06:10.868Z,2.40
2022-09-29T02:07:10.862Z,4.40
2022-09-29T02:08:10.859Z,2.60
2022-09-29T02:09:10.855Z,2.60
2022-09-29T02:10:10.854Z,2.90
2022-09-29T02:11:10.866Z,2.80
2022-09-29T02:12:11.194Z,3.00
2022-09-29T02:13:10.840Z,3.40
2022-09-29T02:14:10.849Z,3.80
2022-09-29T02:15:10.847Z,3.30
2022-09-29T02:16:10.867Z,2.80
2022-09-29T02:17:10.825Z,3.40
2022-09-29T02:18:10.822Z,3.40
2022-09-29T02:19:10.816Z,2.60
2022-09-29T02:20:10.808Z,2.50
2022-09-29T02:21:10.805Z,2.40
2022-09-29T02:22:10.801Z,2.90
2022-09-29T02:23:10.797Z,2.80
2022-09-29T02:24:10.793Z,3.10
2022-09-29T02:25:10.792Z,3.20
2022-09-29T02:26:10.786Z,3.20
2022-09-29T02:27:10.801Z,3.40
2022-09-29T02:28:10.775Z,3.10
2022-09-29T02:29:10.775Z,3.90
2022-09-29T02:30:10.769Z,3.90
2022-09-29T02:31:10.825Z,3.90
2022-09-29T02:32:10.763Z,3.60
2022-09-29T02:33:10.774Z,3.70
2022-09-29T02:34:10.754Z,4.00
2022-09-29T02:35:10.747Z,4.50
2022-09-29T02:36:10.746Z,4.00
2022-09-29T02:37:10.739Z,4.20
2022-09-29T02:38:10.735Z,4.20
2022-09-29T02:39:10.731Z,3.80
2022-09-29T02:40:10.727Z,4.60
2022-09-29T02:41:10.721Z,4.60
2022-09-29T02:42:10.719Z,4.30
2022-09-29T02:43:10.739Z,3.90
2022-09-29T02:44:10.707Z,4.20
2022-09-29T02:45:10.713Z,3.70
2022-09-29T02:46:10.721Z,3.80
2022-09-29T02:47:10.696Z,3.70
2022-09-29T02:48:10.690Z,3.80
2022-09-29T02:49:10.690Z,4.00
2022-09-29T02:50:10.681Z,4.00
2022-09-29T02:51:10.684Z,3.80
2022-09-29T02:52:10.672Z,4.40
2022-09-29T02:53:10.671Z,4.00
2022-09-29T02:54:10.666Z,4.60
2022-09-29T02:55:10.673Z,3.10
2022-09-29T02:56:10.658Z,2.70
2022-09-29T02:57:10.653Z,3.60
2022-09-29T02:58:10.651Z,3.60
2022-09-29T02:59:10.664Z,4.20
2022-09-29T03:00:10.649Z,5.20
2022-09-29T03:01:10.682Z,4.20
2022-09-29T03:02:10.629Z,4.80
2022-09-29T03:03:10.672Z,4.90
2022-09-29T03:04:10.701Z,4.90
2022-09-29T03:05:10.615Z,4.50
2022-09-29T03:06:10.612Z,4.60
2022-09-29T03:07:10.608Z,5.00
2022-09-29T03:08:10.603Z,5.60
2022-09-29T03:09:10.602Z,6.00
2022-09-29T03:10:10.599Z,6.40
2022-09-29T03:11:10.591Z,5.50
2022-09-29T03:12:10.584Z,6.50
2022-09-29T03:13:10.583Z,5.70
2022-09-29T03:14:10.582Z,6.00
2022-09-29T03:15:10.594Z,5.70
2022-09-29T03:16:10.622Z,5.80
2022-09-29T03:17:10.566Z,6.20
2022-09-29T03:18:10.561Z,7.90
2022-09-29T03:19:10.556Z,8.00
2022-09-29T03:20:10.554Z,7.60
2022-09-29T03:21:10.546Z,8.20
2022-09-29T03:22:10.544Z,7.00
2022-09-29T03:23:10.540Z,5.50
2022-09-29T03:24:10.537Z,4.80
2022-09-29T03:25:10.534Z,5.10
2022-09-29T03:26:10.528Z,5.30
2022-09-29T03:27:10.521Z,4.80
2022-09-29T03:28:10.516Z,5.00
2022-09-29T03:29:10.517Z,4.30
2022-09-29T03:30:10.506Z,5.50
2022-09-29T03:31:10.568Z,4.80
2022-09-29T03:32:10.499Z,5.80
2022-09-29T03:33:10.496Z,4.40
2022-09-29T03:34:10.489Z,4.60
2022-09-29T03:35:10.483Z,6.20
2022-09-29T03:36:10.481Z,5.70
2022-09-29T03:37:10.479Z,6.30
2022-09-29T03:38:10.483Z,7.10
2022-09-29T03:39:10.475Z,6.80
2022-09-29T03:40:10.464Z,5.20
2022-09-29T03:41:10.461Z,4.50
2022-09-29T03:42:10.456Z,4.20
2022-09-29T03:43:10.456Z,4.20
2022-09-29T03:44:10.444Z,4.10
2022-09-29T03:45:10.442Z,4.40
2022-09-29T03:46:10.532Z,4.10
2022-09-29T03:47:10.579Z,5.00
2022-09-29T03:48:10.429Z,5.00
2022-09-29T03:49:10.427Z,5.10
2022-09-29T03:50:10.423Z,4.90
2022-09-29T03:51:10.418Z,4.90
2022-09-29T03:52:10.413Z,4.90
2022-09-29T03:53:10.410Z,4.80
2022-09-29T03:54:10.402Z,4.90
2022-09-29T03:55:10.396Z,4.80
2022-09-29T03:56:10.399Z,4.60
2022-09-29T03:57:10.392Z,4.70
2022-09-29T03:58:10.390Z,4.80
2022-09-29T03:59:10.405Z,4.60
2022-09-29T04:00:10.382Z,4.70
2022-09-29T04:01:10.411Z,4.20
2022-09-29T04:02:10.380Z,4.60
2022-09-29T04:03:10.383Z,5.20
2022-09-29T04:04:10.358Z,4.30
2022-09-29T04:05:10.354Z,4.60
2022-09-29T04:06:10.346Z,4.30
2022-09-29T04:07:10.341Z,3.70
2022-09-29T04:08:10.337Z,3.20
2022-09-29T04:09:10.335Z,3.30
2022-09-29T04:10:10.328Z,3.80
2022-09-29T04:11:10.326Z,3.60
2022-09-29T04:12:10.319Z,3.10
2022-09-29T04:13:10.317Z,3.00
2022-09-29T04:14:10.314Z,3.50
2022-09-29T04:15:10.314Z,3.50
2022-09-29T04:16:10.361Z,3.50
2022-09-29T04:17:10.307Z,3.70
2022-09-29T04:18:10.294Z,3.50
2022-09-29T04:19:10.308Z,3.70
2022-09-29T04:20:10.285Z,3.80
2022-09-29T04:21:10.285Z,4.00
2022-09-29T04:22:10.277Z,4.40
2022-09-29T04:23:10.273Z,4.40
2022-09-29T04:24:10.267Z,4.40
2022-09-29T04:25:10.265Z,4.70
2022-09-29T04:26:10.259Z,5.10
2022-09-29T04:27:10.257Z,5.70
2022-09-29T04:28:10.259Z,5.70
2022-09-29T04:29:10.249Z,5.60
2022-09-29T04:30:10.243Z,5.90
2022-09-29T04:31:10.287Z,4.60
2022-09-29T04:32:10.233Z,3.80
2022-09-29T04:33:10.231Z,5.40
2022-09-29T04:34:10.225Z,5.00
2022-09-29T04:35:10.238Z,3.80
2022-09-29T04:36:10.213Z,3.60
2022-09-29T04:37:10.208Z,3.70
2022-09-29T04:38:10.204Z,3.80
2022-09-29T04:39:10.198Z,4.30
2022-09-29T04:40:10.262Z,4.40
2022-09-29T04:41:10.200Z,3.60
2022-09-29T04:42:10.184Z,3.90
2022-09-29T04:43:10.186Z,2.80
2022-09-29T04:44:10.174Z,3.20
2022-09-29T04:45:10.173Z,3.10
2022-09-29T04:46:10.234Z,2.90
2022-09-29T04:47:10.162Z,2.90
2022-09-29T04:48:10.158Z,3.30
2022-09-29T04:49:10.153Z,2.60
2022-09-29T04:50:10.149Z,2.70
2022-09-29T04:51:10.162Z,2.40
2022-09-29T04:52:10.153Z,2.70
2022-09-29T04:53:10.137Z,2.40
2022-09-29T04:54:10.127Z,2.20
2022-09-29T04:55:10.129Z,2.20
2022-09-29T04:56:10.119Z,2.50
2022-09-29T04:57:10.114Z,2.30
2022-09-29T04:58:10.118Z,2.40
2022-09-29T04:59:10.108Z,2.80
2022-09-29T05:00:10.106Z,2.80
2022-09-29T05:01:10.250Z,2.90
2022-09-29T05:02:10.188Z,3.00
2022-09-29T05:03:10.095Z,3.30
2022-09-29T05:04:10.082Z,3.30
2022-09-29T05:05:10.080Z,2.90
2022-09-29T05:06:10.088Z,2.70
2022-09-29T05:07:10.093Z,2.80
2022-09-29T05:08:10.066Z,3.40
2022-09-29T05:09:10.060Z,4.00
2022-09-29T05:10:10.057Z,3.50
2022-09-29T05:11:10.053Z,2.90
2022-09-29T05:12:10.048Z,2.90
2022-09-29T05:13:10.044Z,3.10
2022-09-29T05:14:10.037Z,2.80
2022-09-29T05:15:10.053Z,2.80
2022-09-29T05:16:10.105Z,2.70
2022-09-29T05:17:10.023Z,2.40
2022-09-29T05:18:10.020Z,2.80
2022-09-29T05:19:10.017Z,2.90
2022-09-29T05:20:10.011Z,2.40
2022-09-29T05:21:27.097Z,2.60
2022-09-29T05:22:09.999Z,2.60
2022-09-29T05:23:10.055Z,2.70
2022-09-29T05:24:09.988Z,2.20
2022-09-29T05:25:09.990Z,2.30
2022-09-29T05:26:09.984Z,3.20
2022-09-29T05:27:09.978Z,3.80
2022-09-29T05:28:09.969Z,4.40
2022-09-29T05:29:09.971Z,4.10
2022-09-29T05:30:09.962Z,3.80
2022-09-29T05:31:10.006Z,3.80
2022-09-29T05:32:09.955Z,4.50
2022-09-29T05:33:09.948Z,4.50
2022-09-29T05:34:09.944Z,5.20
2022-09-29T05:35:09.941Z,5.20
2022-09-29T05:36:09.934Z,5.80
2022-09-29T05:37:10.049Z,5.70
2022-09-29T05:38:09.931Z,6.90
2022-09-29T05:39:09.941Z,5.60
2022-09-29T05:40:09.922Z,5.10
2022-09-29T05:41:09.916Z,5.10
2022-09-29T05:42:09.910Z,5.30
2022-09-29T05:43:09.901Z,5.00
2022-09-29T05:44:09.898Z,5.20
2022-09-29T05:45:09.891Z,5.00
2022-09-29T05:46:10.141Z,5.80
2022-09-29T05:47:09.890Z,5.80
2022-09-29T05:48:09.879Z,6.20
2022-09-29T05:49:09.871Z,6.20
2022-09-29T05:50:09.869Z,5.80
2022-09-29T05:51:09.867Z,5.10
2022-09-29T05:52:09.858Z,4.80
2022-09-29T05:53:09.855Z,4.80
2022-09-29T05:54:09.848Z,5.00
2022-09-29T05:55:09.861Z,4.80
2022-09-29T05:56:09.842Z,4.80
2022-09-29T05:57:09.835Z,4.80
2022-09-29T05:58:09.834Z,4.90
2022-09-29T05:59:09.825Z,4.20
2022-09-29T06:00:09.821Z,4.20
2022-09-29T06:01:09.865Z,3.70
2022-09-29T06:02:09.860Z,3.50
2022-09-29T06:03:09.805Z,3.30
2022-09-29T06:04:09.801Z,4.80
2022-09-29T06:05:09.798Z,5.30
2022-09-29T06:06:09.795Z,4.60
2022-09-29T06:07:09.785Z,5.60
2022-09-29T06:08:09.780Z,5.10
2022-09-29T06:09:09.778Z,6.80
2022-09-29T06:10:09.770Z,6.00
2022-09-29T06:11:09.789Z,6.60
2022-09-29T06:12:09.760Z,6.50
2022-09-29T06:13:09.757Z,6.50
2022-09-29T06:14:09.758Z,6.30
2022-09-29T06:15:09.752Z,5.80
2022-09-29T06:16:09.767Z,6.50
2022-09-29T06:17:09.988Z,5.80
2022-09-29T06:18:09.737Z,5.80
2022-09-29T06:19:09.739Z,5.60
2022-09-29T06:20:09.724Z,5.80
2022-09-29T06:21:09.720Z,5.90
2022-09-29T06:22:09.721Z,6.10
2022-09-29T06:23:09.709Z,6.00
2022-09-29T06:24:09.708Z,6.80
2022-09-29T06:25:09.715Z,6.50
2022-09-29T06:26:09.694Z,7.00
2022-09-29T06:27:09.707Z,6.70
2022-09-29T06:28:09.687Z,8.00
2022-09-29T06:29:09.683Z,8.10
2022-09-29T06:30:09.677Z,8.70
2022-09-29T06:31:09.668Z,9.30
2022-09-29T06:32:09.698Z,12.10
2022-09-29T06:33:09.663Z,12.30
2022-09-29T06:34:09.659Z,12.00
2022-09-29T06:35:09.653Z,11.70
2022-09-29T06:36:09.648Z,10.40
2022-09-29T06:37:09.642Z,10.90
2022-09-29T06:38:09.639Z,11.00
2022-09-29T06:39:09.633Z,11.20
2022-09-29T06:40:11.200Z,11.70
2022-09-29T06:41:09.627Z,11.80
2022-09-29T06:42:09.623Z,12.60
2022-09-29T06:43:09.631Z,11.60
2022-09-29T06:44:09.610Z,12.50
2022-09-29T06:45:09.604Z,12.50
2022-09-29T06:46:09.670Z,12.80
2022-09-29T06:47:09.598Z,11.50
2022-09-29T06:48:09.598Z,11.10
2022-09-29T06:49:09.589Z,10.90
2022-09-29T06:50:09.581Z,10.80
2022-09-29T06:51:10.605Z,12.60
2022-09-29T06:52:19.833Z,13.20
2022-09-29T06:53:09.567Z,13.80
2022-09-29T06:54:12.167Z,13.50
2022-09-29T06:55:09.557Z,13.80
2022-09-29T06:56:09.555Z,14.50
2022-09-29T06:57:09.548Z,15.00
2022-09-29T06:58:09.544Z,16.40
2022-09-29T06:59:09.576Z,15.60
2022-09-29T07:00:09.536Z,16.00
2022-09-29T07:01:09.572Z,16.80
2022-09-29T07:02:09.580Z,17.60
2022-09-29T07:03:09.521Z,16.10
2022-09-29T07:04:09.520Z,15.90
2022-09-29T07:05:09.510Z,15.40
2022-09-29T07:06:19.196Z,15.80
2022-09-29T07:07:09.506Z,16.30
2022-09-29T07:08:09.498Z,15.90
2022-09-29T07:09:09.495Z,16.50
2022-09-29T07:10:09.497Z,16.70
2022-09-29T07:11:09.484Z,17.50
2022-09-29T07:12:09.511Z,16.10
2022-09-29T07:13:09.487Z,16.70
2022-09-29T07:14:09.474Z,16.20
2022-09-29T07:15:09.485Z,16.50
2022-09-29T07:16:09.567Z,17.00
2022-09-29T07:17:09.461Z,16.00
2022-09-29T07:18:09.489Z,16.20
2022-09-29T07:19:09.450Z,15.80
2022-09-29T07:20:09.450Z,16.10
2022-09-29T07:21:09.444Z,16.50
2022-09-29T07:22:09.438Z,15.50
2022-09-29T07:23:09.433Z,15.30
2022-09-29T07:24:09.437Z,15.40
2022-09-29T07:25:09.426Z,15.70
2022-09-29T07:26:09.424Z,16.20
2022-09-29T07:27:09.419Z,15.90
2022-09-29T07:28:09.421Z,15.60
2022-09-29T07:29:14.901Z,15.60
2022-09-29T07:30:09.406Z,14.90
2022-09-29T07:31:14.793Z,15.90
2022-09-29T07:32:22.339Z,16.10
2022-09-29T07:33:09.452Z,14.80
2022-09-29T07:34:09.396Z,15.00
2022-09-29T07:35:09.388Z,15.60
2022-09-29T07:36:09.399Z,15.00
2022-09-29T07:37:09.383Z,15.90
2022-09-29T07:38:09.382Z,15.60
2022-09-29T07:39:09.376Z,14.70
2022-09-29T07:40:09.572Z,15.70
2022-09-29T07:41:09.368Z,15.30
2022-09-29T07:42:09.613Z,15.20
2022-09-29T07:43:09.363Z,14.30
2022-09-29T07:44:09.361Z,15.50
2022-09-29T07:45:09.372Z,15.00
2022-09-29T07:46:09.433Z,15.10
2022-09-29T07:47:09.375Z,15.30
2022-09-29T07:48:09.353Z,15.20
2022-09-29T07:49:09.348Z,15.40
2022-09-29T07:50:09.346Z,15.10
2022-09-29T07:51:09.340Z,16.00
2022-09-29T07:52:09.335Z,15.80
2022-09-29T07:53:09.338Z,15.60
2022-09-29T07:54:09.338Z,16.90
2022-09-29T07:55:09.328Z,16.30
2022-09-29T07:56:09.330Z,17.20
2022-09-29T07:57:09.331Z,16.70
2022-09-29T07:58:09.360Z,17.30
2022-09-29T07:59:09.319Z,16.90
2022-09-29T08:00:09.318Z,16.20
2022-09-29T08:01:09.356Z,15.90
2022-09-29T08:02:09.354Z,16.70
2022-09-29T08:03:09.325Z,16.10
2022-09-29T08:04:09.312Z,17.20
2022-09-29T08:05:09.304Z,17.80
2022-09-29T08:06:09.302Z,17.10
2022-09-29T08:07:09.301Z,17.40
2022-09-29T08:08:09.296Z,17.00
2022-09-29T08:09:09.297Z,17.90
2022-09-29T08:10:16.796Z,18.30
2022-09-29T08:11:10.465Z,17.90
2022-09-29T08:12:09.286Z,16.40
2022-09-29T08:13:09.281Z,17.50
2022-09-29T08:14:09.280Z,18.50
2022-09-29T08:15:09.281Z,17.50
2022-09-29T08:16:09.315Z,16.70
2022-09-29T08:17:09.270Z,18.80
2022-09-29T08:18:09.267Z,19.30
2022-09-29T08:19:09.348Z,18.00
2022-09-29T08:20:09.263Z,17.70
2022-09-29T08:21:09.260Z,18.70
2022-09-29T08:22:09.255Z,18.60
2022-09-29T08:23:09.253Z,18.20
2022-09-29T08:24:09.251Z,20.30
2022-09-29T08:25:09.246Z,18.20
2022-09-29T08:26:09.243Z,18.20
2022-09-29T08:27:18.128Z,19.30
2022-09-29T08:28:09.313Z,19.10
2022-09-29T08:29:09.392Z,17.80
2022-09-29T08:30:09.233Z,19.60
2022-09-29T08:31:09.230Z,18.90
2022-09-29T08:32:09.299Z,19.90
2022-09-29T08:33:09.222Z,19.00
2022-09-29T08:34:09.220Z,20.00
2022-09-29T08:35:09.239Z,19.00
2022-09-29T08:36:09.214Z,18.50
2022-09-29T08:37:09.211Z,19.80
2022-09-29T08:38:09.213Z,19.10
2022-09-29T08:39:09.205Z,19.90
2022-09-29T08:40:09.461Z,20.10
2022-09-29T08:41:09.200Z,19.20
2022-09-29T08:42:09.197Z,19.50
2022-09-29T08:43:09.194Z,19.50
2022-09-29T08:44:18.392Z,18.90
2022-09-29T08:45:16.012Z,18.40
2022-09-29T08:46:09.218Z,18.70
2022-09-29T08:47:11.032Z,18.90
2022-09-29T08:48:20.424Z,18.90
2022-09-29T08:49:09.175Z,18.80
2022-09-29T08:50:09.171Z,17.90
2022-09-29T08:51:09.185Z,17.90
2022-09-29T08:52:16.513Z,19.80
2022-09-29T08:53:22.145Z,19.10
2022-09-29T08:54:09.164Z,20.00
2022-09-29T08:55:18.987Z,20.30
2022-09-29T08:56:09.154Z,20.40
2022-09-29T08:57:09.148Z,19.40
2022-09-29T08:58:09.148Z,19.70
2022-09-29T08:59:09.146Z,19.50
2022-09-29T09:00:09.150Z,19.50
2022-09-29T09:01:09.208Z,18.70
2022-09-29T09:02:09.180Z,21.00
2022-09-29T09:03:09.134Z,21.20
2022-09-29T09:04:09.128Z,20.00
2022-09-29T09:05:09.124Z,19.50
2022-09-29T09:06:09.121Z,19.60
2022-09-29T09:07:09.136Z,20.20
2022-09-29T09:08:09.155Z,19.60
2022-09-29T09:09:09.111Z,20.20
2022-09-29T09:10:09.117Z,21.70
2022-09-29T09:11:09.110Z,20.80
2022-09-29T09:12:09.105Z,18.90
2022-09-29T09:13:09.099Z,18.80
2022-09-29T09:14:09.100Z,20.10
2022-09-29T09:15:09.092Z,21.40
2022-09-29T09:16:09.137Z,20.20
2022-09-29T09:17:09.094Z,20.90
2022-09-29T09:18:09.086Z,20.20
2022-09-29T09:19:09.083Z,20.70
2022-09-29T09:20:09.083Z,21.60
2022-09-29T09:21:09.075Z,20.80
2022-09-29T09:22:09.074Z,21.20
2022-09-29T09:23:09.088Z,21.40
2022-09-29T09:24:09.069Z,20.80
2022-09-29T09:25:09.064Z,21.00
2022-09-29T09:26:09.062Z,20.90
2022-09-29T09:27:09.057Z,20.10
2022-09-29T09:28:09.061Z,19.80
2022-09-29T09:29:09.050Z,20.90
2022-09-29T09:30:09.050Z,20.70
2022-09-29T09:31:09.140Z,19.60
2022-09-29T09:32:09.044Z,20.30
2022-09-29T09:33:09.049Z,18.40
2022-09-29T09:34:09.039Z,19.20
2022-09-29T09:35:21.017Z,18.40
2022-09-29T09:36:09.032Z,18.60
2022-09-29T09:37:09.031Z,18.40
2022-09-29T09:38:09.023Z,19.50
2022-09-29T09:39:09.044Z,20.30
2022-09-29T09:40:09.018Z,21.70
2022-09-29T09:41:09.019Z,22.20
2022-09-29T09:42:09.012Z,21.30
2022-09-29T09:43:09.006Z,22.60
2022-09-29T09:44:09.008Z,19.70
2022-09-29T09:45:09.002Z,19.60
2022-09-29T09:46:09.052Z,19.20
2022-09-29T09:47:08.996Z,20.10
2022-09-29T09:48:08.992Z,20.60
2022-09-29T09:49:08.990Z,20.10
2022-09-29T09:50:08.993Z,20.20
2022-09-29T09:51:08.992Z,20.70
2022-09-29T09:52:09.023Z,20.20
2022-09-29T09:53:11.705Z,20.00
2022-09-29T09:54:08.974Z,21.40
2022-09-29T09:55:08.991Z,21.10
2022-09-29T09:56:08.968Z,20.50
2022-09-29T09:57:08.965Z,20.60
2022-09-29T09:58:09.119Z,20.50
2022-09-29T09:59:08.965Z,19.70
2022-09-29T10:00:08.966Z,19.60
2022-09-29T10:01:09.003Z,20.00
2022-09-29T10:02:09.022Z,20.30
2022-09-29T10:03:08.960Z,19.40
2022-09-29T10:04:08.946Z,19.40
2022-09-29T10:05:09.666Z,19.40
2022-09-29T10:06:08.939Z,20.90
2022-09-29T10:07:08.935Z,19.80
2022-09-29T10:08:08.932Z,18.20
2022-09-29T10:09:09.023Z,18.70
2022-09-29T10:10:08.926Z,17.60
2022-09-29T10:11:08.944Z,19.20
2022-09-29T10:12:08.918Z,20.00
2022-09-29T10:13:08.915Z,18.30
2022-09-29T10:14:08.912Z,18.30
2022-09-29T10:15:08.909Z,17.80
2022-09-29T10:16:08.967Z,18.50
2022-09-29T10:17:08.908Z,19.90
2022-09-29T10:18:08.903Z,18.60
2022-09-29T10:19:08.900Z,18.00
2022-09-29T10:20:08.896Z,17.50
2022-09-29T10:21:08.891Z,18.60
2022-09-29T10:22:08.910Z,18.00
2022-09-29T10:23:08.888Z,19.10
2022-09-29T10:24:08.883Z,19.10
2022-09-29T10:25:08.887Z,19.10
2022-09-29T10:26:08.875Z,19.70
2022-09-29T10:27:08.894Z,16.80
2022-09-29T10:28:08.870Z,16.70
2022-09-29T10:29:08.867Z,17.50
2022-09-29T10:30:08.865Z,18.20
2022-09-29T10:31:08.902Z,17.20
2022-09-29T10:32:08.858Z,17.10
2022-09-29T10:33:11.099Z,16.10
2022-09-29T10:34:08.852Z,15.90
2022-09-29T10:35:08.851Z,15.50
2022-09-29T10:36:08.849Z,15.90
2022-09-29T10:37:08.844Z,15.30
2022-09-29T10:38:08.842Z,15.00
2022-09-29T10:39:08.841Z,15.20
2022-09-29T10:40:08.831Z,15.40
2022-09-29T10:41:08.841Z,15.90
2022-09-29T10:42:08.834Z,16.50
2022-09-29T10:43:08.848Z,16.70
2022-09-29T10:44:08.823Z,16.20
2022-09-29T10:45:08.824Z,16.40
2022-09-29T10:46:08.874Z,15.60
2022-09-29T10:47:08.814Z,14.60
2022-09-29T10:48:08.811Z,14.60
2022-09-29T10:49:08.910Z,14.30
2022-09-29T10:50:08.912Z,15.40
2022-09-29T10:51:08.812Z,15.30
2022-09-29T10:52:08.799Z,14.80
2022-09-29T10:53:10.167Z,15.70
2022-09-29T10:54:08.795Z,14.70
2022-09-29T10:55:08.788Z,14.20
2022-09-29T10:56:08.786Z,14.30
2022-09-29T10:57:08.785Z,13.80
2022-09-29T10:58:08.783Z,14.20
2022-09-29T10:59:08.792Z,15.50
2022-09-29T11:00:08.823Z,15.80
2022-09-29T11:01:08.870Z,15.90
2022-09-29T11:02:08.788Z,15.70
2022-09-29T11:03:08.769Z,16.20
2022-09-29T11:04:08.760Z,16.00
2022-09-29T11:05:08.757Z,14.70
2022-09-29T11:06:08.754Z,15.00
2022-09-29T11:07:08.749Z,14.70
2022-09-29T11:08:08.747Z,14.50
2022-09-29T11:09:08.784Z,13.90
2022-09-29T11:10:08.745Z,13.70
2022-09-29T11:11:08.740Z,13.30
2022-09-29T11:12:09.637Z,13.00
2022-09-29T11:13:08.732Z,13.80
2022-09-29T11:14:08.735Z,14.10
2022-09-29T11:15:08.754Z,12.70
2022-09-29T11:16:08.732Z,12.50
2022-09-29T11:17:08.731Z,12.80
2022-09-29T11:18:08.723Z,14.20
2022-09-29T11:19:08.713Z,13.30
2022-09-29T11:20:08.715Z,12.20
2022-09-29T11:21:08.711Z,11.70
2022-09-29T11:22:08.707Z,12.00
2022-09-29T11:23:08.705Z,12.30
2022-09-29T11:24:08.698Z,11.40
2022-09-29T11:25:08.699Z,11.70
2022-09-29T11:26:08.694Z,10.90
2022-09-29T11:27:08.693Z,11.00
2022-09-29T11:28:08.690Z,11.00
2022-09-29T11:29:08.686Z,11.20
2022-09-29T11:30:08.682Z,11.10
2022-09-29T11:31:08.699Z,11.60
2022-09-29T11:32:11.426Z,10.60
2022-09-29T11:33:08.680Z,10.80
2022-09-29T11:34:08.671Z,10.20
2022-09-29T11:35:08.674Z,9.90
2022-09-29T11:36:08.665Z,9.80
2022-09-29T11:37:08.662Z,9.90
2022-09-29T11:38:08.658Z,9.80
2022-09-29T11:39:08.656Z,10.10
2022-09-29T11:40:08.653Z,10.30
2022-09-29T11:41:08.653Z,11.20
2022-09-29T11:42:08.647Z,10.60
2022-09-29T11:43:08.651Z,10.90
2022-09-29T11:44:08.642Z,10.50
2022-09-29T11:45:08.945Z,11.20
2022-09-29T11:46:08.690Z,10.70
2022-09-29T11:47:08.648Z,11.30
2022-09-29T11:48:08.627Z,11.00
2022-09-29T11:49:08.628Z,10.80
2022-09-29T11:50:08.633Z,11.30
2022-09-29T11:51:08.623Z,9.80
2022-09-29T11:52:08.617Z,10.20
2022-09-29T11:53:08.612Z,9.80
2022-09-29T11:54:08.611Z,10.00
2022-09-29T11:55:08.609Z,10.20
2022-09-29T11:56:08.603Z,9.60
2022-09-29T11:57:08.609Z,10.20
2022-09-29T11:58:08.599Z,9.80
2022-09-29T11:59:08.597Z,9.10
2022-09-29T12:00:08.606Z,8.60
2022-09-29T12:01:08.589Z,7.80
2022-09-29T12:02:08.751Z,7.10
2022-09-29T12:03:08.701Z,7.70
2022-09-29T12:04:10.076Z,7.50
2022-09-29T12:05:08.583Z,6.60
2022-09-29T12:06:08.578Z,6.50
2022-09-29T12:07:08.584Z,6.90
2022-09-29T12:08:08.568Z,7.10
2022-09-29T12:09:08.604Z,7.80
2022-09-29T12:10:08.566Z,7.70
2022-09-29T12:11:37.438Z,7.70
2022-09-29T12:12:23.142Z,8.30
2022-09-29T12:13:08.555Z,8.80
2022-09-29T12:14:08.554Z,8.00
2022-09-29T12:15:08.550Z,8.50
2022-09-29T12:16:08.552Z,9.10
2022-09-29T12:17:08.572Z,8.80
2022-09-29T12:18:08.543Z,8.70
2022-09-29T12:19:08.555Z,8.50
2022-09-29T12:20:08.533Z,8.80
2022-09-29T12:21:08.596Z,9.60
2022-09-29T12:22:08.527Z,9.20
2022-09-29T12:23:08.528Z,8.60
2022-09-29T12:24:08.520Z,8.60
2022-09-29T12:25:08.532Z,8.10
2022-09-29T12:26:08.519Z,8.60
2022-09-29T12:27:08.522Z,7.60
2022-09-29T12:28:08.510Z,6.90
2022-09-29T12:29:08.513Z,6.30
2022-09-29T12:30:08.504Z,6.50
2022-09-29T12:31:08.586Z,5.90
2022-09-29T12:32:08.502Z,5.10
2022-09-29T12:33:08.509Z,5.60
2022-09-29T12:34:08.493Z,5.50
2022-09-29T12:35:08.514Z,5.00
2022-09-29T12:36:08.485Z,4.50
2022-09-29T12:37:08.485Z,4.70
2022-09-29T12:38:08.484Z,5.30
2022-09-29T12:39:10.356Z,4.40
2022-09-29T12:40:08.474Z,4.60
2022-09-29T12:41:08.477Z,5.50
2022-09-29T12:42:08.482Z,5.70
2022-09-29T12:43:08.470Z,5.60
2022-09-29T12:44:08.464Z,5.30
2022-09-29T12:45:11.215Z,5.40
2022-09-29T12:46:08.494Z,5.80
2022-09-29T12:47:08.457Z,5.10
2022-09-29T12:48:08.457Z,5.30
2022-09-29T12:49:08.455Z,5.10
2022-09-29T12:50:08.448Z,5.60
2022-09-29T12:51:08.471Z,4.90
2022-09-29T12:52:08.451Z,4.70
2022-09-29T12:53:09.325Z,4.60
2022-09-29T12:54:10.066Z,4.50
2022-09-29T12:55:08.441Z,3.90
2022-09-29T12:56:08.546Z,4.50
2022-09-29T12:57:08.474Z,4.40
2022-09-29T12:58:08.432Z,5.00
2022-09-29T12:59:08.432Z,5.70
2022-09-29T13:00:08.425Z,6.50
2022-09-29T13:01:08.462Z,6.60
2022-09-29T13:02:08.448Z,7.10
2022-09-29T13:03:08.418Z,6.30
2022-09-29T13:04:12.187Z,6.50
2022-09-29T13:05:08.408Z,5.50
2022-09-29T13:06:08.407Z,6.20
2022-09-29T13:07:08.425Z,5.80